sensor_id;sensor_type;location;lat;lon;timestamp;temperature;humidity
47616;DHT22;69146;52.266;7.000;2023-08-06T00:00:24;14.40;99.90
47616;DHT22;69146;52.266;7.000;2023-08-06T00:03:09;14.40;99.90
47616;DHT22;69146;52.266;7.000;2023-08-06T00:05:53;14.40;99.90
47616;DHT22;69146;52.266;7.000;2023-08-06T00:08:37;14.40;99.90
47616;DHT22;69146;52.266;7.000;2023-08-06T00:11:22;14.30;99.90
47616;DHT22;69146;52.266;7.000;2023-08-06T00:14:06;14.30;99.90
47616;DHT22;69146;52.266;7.000;2023-08-06T00:16:52;14.30;99.90
47616;DHT22;69146;52.266;7.000;2023-08-06T00:19:37;14.30;99.90
47616;DHT22;69146;52.266;7.000;2023-08-06T00:22:21;14.30;99.90
47616;DHT22;69146;52.266;7.000;2023-08-06T00:25:06;14.30;99.90
47616;DHT22;69146;52.266;7.000;2023-08-06T00:27:50;14.30;99.90
47616;DHT22;69146;52.266;7.000;2023-08-06T00:30:35;14.30;99.90
47616;DHT22;69146;52.266;7.000;2023-08-06T00:33:21;14.40;99.90
47616;DHT22;69146;52.266;7.000;2023-08-06T00:36:05;14.40;99.90
47616;DHT22;69146;52.266;7.000;2023-08-06T00:38:49;14.40;99.90
47616;DHT22;69146;52.266;7.000;2023-08-06T00:41:34;14.50;99.90
47616;DHT22;69146;52.266;7.000;2023-08-06T00:44:18;14.50;99.90
47616;DHT22;69146;52.266;7.000;2023-08-06T00:47:03;14.50;99.90
47616;DHT22;69146;52.266;7.000;2023-08-06T00:49:49;14.50;99.90
47616;DHT22;69146;52.266;7.000;2023-08-06T00:52:34;14.70;99.90
47616;DHT22;69146;52.266;7.000;2023-08-06T00:55:19;14.70;99.90
47616;DHT22;69146;52.266;7.000;2023-08-06T00:58:04;14.60;99.90
47616;DHT22;69146;52.266;7.000;2023-08-06T01:00:48;14.70;99.90
47616;DHT22;69146;52.266;7.000;2023-08-06T01:03:33;14.60;99.90
47616;DHT22;69146;52.266;7.000;2023-08-06T01:06:19;14.70;99.90
47616;DHT22;69146;52.266;7.000;2023-08-06T01:09:10;14.60;99.90
47616;DHT22;69146;52.266;7.000;2023-08-06T01:11:59;14.50;99.90
47616;DHT22;69146;52.266;7.000;2023-08-06T01:14:45;14.50;99.90
47616;DHT22;69146;52.266;7.000;2023-08-06T01:17:32;14.50;99.90
47616;DHT22;69146;52.266;7.000;2023-08-06T01:20:18;14.40;99.90
47616;DHT22;69146;52.266;7.000;2023-08-06T01:23:04;14.40;99.90
47616;DHT22;69146;52.266;7.000;2023-08-06T01:25:49;14.30;99.90
47616;DHT22;69146;52.266;7.000;2023-08-06T01:28:40;14.30;99.90
47616;DHT22;69146;52.266;7.000;2023-08-06T01:31:26;14.20;99.90
47616;DHT22;69146;52.266;7.000;2023-08-06T01:34:13;14.20;99.90
47616;DHT22;69146;52.266;7.000;2023-08-06T01:37:00;14.10;99.90
47616;DHT22;69146;52.266;7.000;2023-08-06T01:39:46;14.10;99.90
47616;DHT22;69146;52.266;7.000;2023-08-06T01:42:30;14.10;99.90
47616;DHT22;69146;52.266;7.000;2023-08-06T01:45:15;14.10;99.90
47616;DHT22;69146;52.266;7.000;2023-08-06T01:47:59;14.10;99.90
47616;DHT22;69146;52.266;7.000;2023-08-06T01:50:44;14.10;99.90
47616;DHT22;69146;52.266;7.000;2023-08-06T01:53:28;14.20;99.90
47616;DHT22;69146;52.266;7.000;2023-08-06T01:56:14;14.20;99.90
47616;DHT22;69146;52.266;7.000;2023-08-06T01:58:58;14.20;99.90
47616;DHT22;69146;52.266;7.000;2023-08-06T02:01:43;14.20;99.90
47616;DHT22;69146;52.266;7.000;2023-08-06T02:04:27;14.20;99.90
47616;DHT22;69146;52.266;7.000;2023-08-06T02:07:12;14.20;99.90
47616;DHT22;69146;52.266;7.000;2023-08-06T02:09:56;14.20;99.90
47616;DHT22;69146;52.266;7.000;2023-08-06T02:12:42;14.20;99.90
47616;DHT22;69146;52.266;7.000;2023-08-06T02:15:27;14.20;99.90
47616;DHT22;69146;52.266;7.000;2023-08-06T02:18:11;14.20;99.90
47616;DHT22;69146;52.266;7.000;2023-08-06T02:20:56;14.10;99.90
47616;DHT22;69146;52.266;7.000;2023-08-06T02:23:41;14.10;99.90
47616;DHT22;69146;52.266;7.000;2023-08-06T02:26:26;14.10;99.90
47616;DHT22;69146;52.266;7.000;2023-08-06T02:29:12;14.20;99.90
47616;DHT22;69146;52.266;7.000;2023-08-06T02:31:56;14.20;99.90
47616;DHT22;69146;52.266;7.000;2023-08-06T02:34:41;14.10;99.90
47616;DHT22;69146;52.266;7.000;2023-08-06T02:37:26;14.20;99.90
47616;DHT22;69146;52.266;7.000;2023-08-06T02:40:10;14.20;99.90
47616;DHT22;69146;52.266;7.000;2023-08-06T02:42:55;14.20;99.90
47616;DHT22;69146;52.266;7.000;2023-08-06T02:45:41;14.20;99.90
47616;DHT22;69146;52.266;7.000;2023-08-06T02:48:25;14.20;99.90
47616;DHT22;69146;52.266;7.000;2023-08-06T02:51:09;14.20;99.90
47616;DHT22;69146;52.266;7.000;2023-08-06T02:53:54;14.20;99.90
47616;DHT22;69146;52.266;7.000;2023-08-06T02:56:38;14.20;99.90
47616;DHT22;69146;52.266;7.000;2023-08-06T02:59:26;14.20;99.90
47616;DHT22;69146;52.266;7.000;2023-08-06T03:02:12;14.20;99.90
47616;DHT22;69146;52.266;7.000;2023-08-06T03:04:57;14.20;99.90
47616;DHT22;69146;52.266;7.000;2023-08-06T03:07:42;14.20;99.90
47616;DHT22;69146;52.266;7.000;2023-08-06T03:10:26;14.20;99.90
47616;DHT22;69146;52.266;7.000;2023-08-06T03:13:11;14.20;99.90
47616;DHT22;69146;52.266;7.000;2023-08-06T03:15:56;14.20;99.90
47616;DHT22;69146;52.266;7.000;2023-08-06T03:18:42;14.20;99.90
47616;DHT22;69146;52.266;7.000;2023-08-06T03:21:27;14.10;99.90
47616;DHT22;69146;52.266;7.000;2023-08-06T03:24:13;14.10;99.90
47616;DHT22;69146;52.266;7.000;2023-08-06T03:26:57;14.20;99.90
47616;DHT22;69146;52.266;7.000;2023-08-06T03:29:42;14.20;99.90
47616;DHT22;69146;52.266;7.000;2023-08-06T03:32:26;14.20;99.90
47616;DHT22;69146;52.266;7.000;2023-08-06T03:35:12;14.30;99.90
47616;DHT22;69146;52.266;7.000;2023-08-06T03:37:56;14.30;99.90
47616;DHT22;69146;52.266;7.000;2023-08-06T03:40:41;14.20;99.90
47616;DHT22;69146;52.266;7.000;2023-08-06T03:43:25;14.20;99.90
47616;DHT22;69146;52.266;7.000;2023-08-06T03:46:10;14.20;99.90
47616;DHT22;69146;52.266;7.000;2023-08-06T03:48:54;14.20;99.90
47616;DHT22;69146;52.266;7.000;2023-08-06T03:51:40;14.10;99.90
47616;DHT22;69146;52.266;7.000;2023-08-06T03:54:24;14.20;99.90
47616;DHT22;69146;52.266;7.000;2023-08-06T03:57:09;14.20;99.90
47616;DHT22;69146;52.266;7.000;2023-08-06T03:59:53;14.20;99.90
47616;DHT22;69146;52.266;7.000;2023-08-06T04:02:38;14.30;99.90
47616;DHT22;69146;52.266;7.000;2023-08-06T04:05:22;14.20;99.90
47616;DHT22;69146;52.266;7.000;2023-08-06T04:08:08;14.20;99.90
47616;DHT22;69146;52.266;7.000;2023-08-06T04:10:52;14.30;99.90
47616;DHT22;69146;52.266;7.000;2023-08-06T04:13:36;14.20;99.90
47616;DHT22;69146;52.266;7.000;2023-08-06T04:16:21;14.30;99.90
47616;DHT22;69146;52.266;7.000;2023-08-06T04:19:05;14.20;99.90
47616;DHT22;69146;52.266;7.000;2023-08-06T04:21:50;14.30;99.90
47616;DHT22;69146;52.266;7.000;2023-08-06T04:24:36;14.20;99.90
47616;DHT22;69146;52.266;7.000;2023-08-06T04:27:20;14.20;99.90
47616;DHT22;69146;52.266;7.000;2023-08-06T04:30:05;14.20;99.90
47616;DHT22;69146;52.266;7.000;2023-08-06T04:32:50;14.20;99.90
47616;DHT22;69146;52.266;7.000;2023-08-06T04:35:34;14.20;99.90
47616;DHT22;69146;52.266;7.000;2023-08-06T04:38:19;14.20;99.90
47616;DHT22;69146;52.266;7.000;2023-08-06T04:41:04;14.20;99.90
47616;DHT22;69146;52.266;7.000;2023-08-06T04:43:49;14.20;99.90
47616;DHT22;69146;52.266;7.000;2023-08-06T04:46:33;14.20;99.90
47616;DHT22;69146;52.266;7.000;2023-08-06T04:49:17;14.30;99.90
47616;DHT22;69146;52.266;7.000;2023-08-06T04:52:02;14.30;99.90
47616;DHT22;69146;52.266;7.000;2023-08-06T04:54:46;14.30;99.90
47616;DHT22;69146;52.266;7.000;2023-08-06T04:57:32;14.30;99.90
47616;DHT22;69146;52.266;7.000;2023-08-06T05:00:16;14.40;99.90
47616;DHT22;69146;52.266;7.000;2023-08-06T05:03:01;14.40;99.90
47616;DHT22;69146;52.266;7.000;2023-08-06T05:05:45;14.40;99.90
47616;DHT22;69146;52.266;7.000;2023-08-06T05:08:30;14.40;99.90
47616;DHT22;69146;52.266;7.000;2023-08-06T05:11:15;14.40;99.90
47616;DHT22;69146;52.266;7.000;2023-08-06T05:14:01;14.50;99.90
47616;DHT22;69146;52.266;7.000;2023-08-06T05:16:45;14.50;99.90
47616;DHT22;69146;52.266;7.000;2023-08-06T05:19:30;14.60;99.90
47616;DHT22;69146;52.266;7.000;2023-08-06T05:22:14;14.60;99.90
47616;DHT22;69146;52.266;7.000;2023-08-06T05:24:59;14.70;99.90
47616;DHT22;69146;52.266;7.000;2023-08-06T05:27:43;14.70;99.90
47616;DHT22;69146;52.266;7.000;2023-08-06T05:30:29;14.70;99.90
47616;DHT22;69146;52.266;7.000;2023-08-06T05:33:13;14.80;99.90
47616;DHT22;69146;52.266;7.000;2023-08-06T05:35:57;14.80;99.90
47616;DHT22;69146;52.266;7.000;2023-08-06T05:38:42;14.90;99.90
47616;DHT22;69146;52.266;7.000;2023-08-06T05:41:26;14.90;99.90
47616;DHT22;69146;52.266;7.000;2023-08-06T05:44:10;14.90;99.90
47616;DHT22;69146;52.266;7.000;2023-08-06T05:46:56;15.00;99.90
47616;DHT22;69146;52.266;7.000;2023-08-06T05:49:41;15.00;99.90
47616;DHT22;69146;52.266;7.000;2023-08-06T05:52:25;15.10;99.90
47616;DHT22;69146;52.266;7.000;2023-08-06T05:55:10;15.20;99.90
47616;DHT22;69146;52.266;7.000;2023-08-06T05:57:54;15.20;99.90
47616;DHT22;69146;52.266;7.000;2023-08-06T06:00:38;15.30;99.90
47616;DHT22;69146;52.266;7.000;2023-08-06T06:03:24;15.40;99.90
47616;DHT22;69146;52.266;7.000;2023-08-06T06:06:08;15.40;99.90
47616;DHT22;69146;52.266;7.000;2023-08-06T06:08:53;15.30;99.90
47616;DHT22;69146;52.266;7.000;2023-08-06T06:11:37;15.40;99.90
47616;DHT22;69146;52.266;7.000;2023-08-06T06:14:22;15.40;99.90
47616;DHT22;69146;52.266;7.000;2023-08-06T06:17:06;15.50;99.90
47616;DHT22;69146;52.266;7.000;2023-08-06T06:19:52;15.40;99.90
47616;DHT22;69146;52.266;7.000;2023-08-06T06:22:36;15.50;99.90
47616;DHT22;69146;52.266;7.000;2023-08-06T06:25:21;15.50;99.90
47616;DHT22;69146;52.266;7.000;2023-08-06T06:28:05;15.40;99.90
47616;DHT22;69146;52.266;7.000;2023-08-06T06:30:51;15.50;99.90
47616;DHT22;69146;52.266;7.000;2023-08-06T06:33:35;15.40;99.90
47616;DHT22;69146;52.266;7.000;2023-08-06T06:36:21;15.40;99.90
47616;DHT22;69146;52.266;7.000;2023-08-06T06:39:05;15.40;99.90
47616;DHT22;69146;52.266;7.000;2023-08-06T06:41:50;15.40;99.90
47616;DHT22;69146;52.266;7.000;2023-08-06T06:44:34;15.50;99.90
47616;DHT22;69146;52.266;7.000;2023-08-06T06:47:19;15.50;99.90
47616;DHT22;69146;52.266;7.000;2023-08-06T06:50:03;15.50;99.90
47616;DHT22;69146;52.266;7.000;2023-08-06T06:52:50;15.50;99.90
47616;DHT22;69146;52.266;7.000;2023-08-06T06:55:34;15.50;99.90
47616;DHT22;69146;52.266;7.000;2023-08-06T06:58:19;15.50;99.90
47616;DHT22;69146;52.266;7.000;2023-08-06T07:01:04;15.60;99.90
47616;DHT22;69146;52.266;7.000;2023-08-06T07:03:48;15.60;99.90
47616;DHT22;69146;52.266;7.000;2023-08-06T07:06:33;15.70;99.90
47616;DHT22;69146;52.266;7.000;2023-08-06T07:09:18;15.70;99.90
47616;DHT22;69146;52.266;7.000;2023-08-06T07:12:03;15.80;99.90
47616;DHT22;69146;52.266;7.000;2023-08-06T07:14:48;15.80;99.90
47616;DHT22;69146;52.266;7.000;2023-08-06T07:17:32;15.90;99.90
47616;DHT22;69146;52.266;7.000;2023-08-06T07:20:17;15.90;99.90
47616;DHT22;69146;52.266;7.000;2023-08-06T07:23:01;15.90;99.90
47616;DHT22;69146;52.266;7.000;2023-08-06T07:25:47;15.90;99.90
47616;DHT22;69146;52.266;7.000;2023-08-06T07:28:32;16.00;99.90
47616;DHT22;69146;52.266;7.000;2023-08-06T07:31:16;16.10;99.90
47616;DHT22;69146;52.266;7.000;2023-08-06T07:34:01;16.10;99.90
47616;DHT22;69146;52.266;7.000;2023-08-06T07:36:45;16.30;99.90
47616;DHT22;69146;52.266;7.000;2023-08-06T07:39:30;16.30;99.90
47616;DHT22;69146;52.266;7.000;2023-08-06T07:42:15;16.20;99.90
47616;DHT22;69146;52.266;7.000;2023-08-06T07:45:01;16.30;99.90
47616;DHT22;69146;52.266;7.000;2023-08-06T07:47:46;16.30;99.90
47616;DHT22;69146;52.266;7.000;2023-08-06T07:50:30;16.40;99.90
47616;DHT22;69146;52.266;7.000;2023-08-06T07:53:15;16.50;99.90
47616;DHT22;69146;52.266;7.000;2023-08-06T07:55:59;16.60;99.90
47616;DHT22;69146;52.266;7.000;2023-08-06T07:58:47;16.50;99.90
47616;DHT22;69146;52.266;7.000;2023-08-06T08:01:31;16.60;99.90
47616;DHT22;69146;52.266;7.000;2023-08-06T08:04:18;16.50;99.90
47616;DHT22;69146;52.266;7.000;2023-08-06T08:07:02;16.40;99.90
47616;DHT22;69146;52.266;7.000;2023-08-06T08:09:47;16.40;99.90
47616;DHT22;69146;52.266;7.000;2023-08-06T08:12:32;16.50;99.90
47616;DHT22;69146;52.266;7.000;2023-08-06T08:15:18;16.50;99.90
47616;DHT22;69146;52.266;7.000;2023-08-06T08:18:02;16.40;99.90
47616;DHT22;69146;52.266;7.000;2023-08-06T08:20:47;16.40;99.90
47616;DHT22;69146;52.266;7.000;2023-08-06T08:23:31;16.40;99.90
47616;DHT22;69146;52.266;7.000;2023-08-06T08:26:16;16.50;99.90
47616;DHT22;69146;52.266;7.000;2023-08-06T08:29:01;16.60;99.90
47616;DHT22;69146;52.266;7.000;2023-08-06T08:31:46;16.70;99.90
47616;DHT22;69146;52.266;7.000;2023-08-06T08:34:33;16.80;99.90
47616;DHT22;69146;52.266;7.000;2023-08-06T08:37:17;16.90;99.90
47616;DHT22;69146;52.266;7.000;2023-08-06T08:40:02;17.10;99.90
47616;DHT22;69146;52.266;7.000;2023-08-06T08:42:48;17.20;99.90
47616;DHT22;69146;52.266;7.000;2023-08-06T08:45:32;17.20;99.90
47616;DHT22;69146;52.266;7.000;2023-08-06T08:48:20;17.30;99.90
47616;DHT22;69146;52.266;7.000;2023-08-06T08:51:05;17.40;99.90
47616;DHT22;69146;52.266;7.000;2023-08-06T08:53:50;17.60;99.90
47616;DHT22;69146;52.266;7.000;2023-08-06T08:56:37;17.90;99.90
47616;DHT22;69146;52.266;7.000;2023-08-06T08:59:21;18.20;99.90
47616;DHT22;69146;52.266;7.000;2023-08-06T09:02:05;18.60;99.90
47616;DHT22;69146;52.266;7.000;2023-08-06T09:04:54;18.90;99.90
47616;DHT22;69146;52.266;7.000;2023-08-06T09:07:41;19.10;99.90
47616;DHT22;69146;52.266;7.000;2023-08-06T09:10:27;19.00;99.90
47616;DHT22;69146;52.266;7.000;2023-08-06T09:13:12;19.10;99.90
47616;DHT22;69146;52.266;7.000;2023-08-06T09:15:56;19.20;99.90
47616;DHT22;69146;52.266;7.000;2023-08-06T09:18:40;19.30;99.90
47616;DHT22;69146;52.266;7.000;2023-08-06T09:21:27;19.50;99.90
47616;DHT22;69146;52.266;7.000;2023-08-06T09:24:12;19.80;99.90
47616;DHT22;69146;52.266;7.000;2023-08-06T09:26:57;20.20;99.90
47616;DHT22;69146;52.266;7.000;2023-08-06T09:29:47;20.30;99.90
47616;DHT22;69146;52.266;7.000;2023-08-06T09:32:44;20.20;99.90
47616;DHT22;69146;52.266;7.000;2023-08-06T09:35:29;20.10;99.90
47616;DHT22;69146;52.266;7.000;2023-08-06T09:38:16;20.20;99.90
47616;DHT22;69146;52.266;7.000;2023-08-06T09:41:00;20.10;99.90
47616;DHT22;69146;52.266;7.000;2023-08-06T09:43:45;20.10;99.90
47616;DHT22;69146;52.266;7.000;2023-08-06T09:46:29;20.30;99.90
47616;DHT22;69146;52.266;7.000;2023-08-06T09:49:17;20.60;99.90
47616;DHT22;69146;52.266;7.000;2023-08-06T09:52:01;20.70;99.90
47616;DHT22;69146;52.266;7.000;2023-08-06T09:54:47;20.90;99.90
47616;DHT22;69146;52.266;7.000;2023-08-06T09:57:32;21.20;99.90
47616;DHT22;69146;52.266;7.000;2023-08-06T10:00:17;21.40;99.90
47616;DHT22;69146;52.266;7.000;2023-08-06T10:03:01;21.50;99.90
47616;DHT22;69146;52.266;7.000;2023-08-06T10:05:46;21.40;99.90
47616;DHT22;69146;52.266;7.000;2023-08-06T10:08:31;21.40;99.90
47616;DHT22;69146;52.266;7.000;2023-08-06T10:11:18;21.50;99.90
47616;DHT22;69146;52.266;7.000;2023-08-06T10:14:06;21.60;99.90
47616;DHT22;69146;52.266;7.000;2023-08-06T10:16:52;21.80;99.90
47616;DHT22;69146;52.266;7.000;2023-08-06T10:19:37;21.90;99.90
47616;DHT22;69146;52.266;7.000;2023-08-06T10:22:22;21.90;99.90
47616;DHT22;69146;52.266;7.000;2023-08-06T10:25:07;21.90;99.90
47616;DHT22;69146;52.266;7.000;2023-08-06T10:27:56;21.90;99.90
47616;DHT22;69146;52.266;7.000;2023-08-06T10:30:41;22.00;99.90
47616;DHT22;69146;52.266;7.000;2023-08-06T10:33:29;22.10;99.90
47616;DHT22;69146;52.266;7.000;2023-08-06T10:36:24;21.90;99.90
47616;DHT22;69146;52.266;7.000;2023-08-06T10:39:12;21.80;99.90
47616;DHT22;69146;52.266;7.000;2023-08-06T10:41:57;22.10;99.90
47616;DHT22;69146;52.266;7.000;2023-08-06T10:44:53;22.30;99.90
47616;DHT22;69146;52.266;7.000;2023-08-06T10:47:55;22.50;99.90
47616;DHT22;69146;52.266;7.000;2023-08-06T10:50:42;22.40;99.90
47616;DHT22;69146;52.266;7.000;2023-08-06T10:53:27;22.00;99.90
47616;DHT22;69146;52.266;7.000;2023-08-06T10:56:14;21.70;99.90
47616;DHT22;69146;52.266;7.000;2023-08-06T10:58:59;21.50;99.90
47616;DHT22;69146;52.266;7.000;2023-08-06T11:01:45;21.40;99.90
47616;DHT22;69146;52.266;7.000;2023-08-06T11:04:30;21.20;99.90
47616;DHT22;69146;52.266;7.000;2023-08-06T11:07:14;21.00;99.90
47616;DHT22;69146;52.266;7.000;2023-08-06T11:10:03;20.90;99.90
47616;DHT22;69146;52.266;7.000;2023-08-06T11:12:48;20.80;99.90
47616;DHT22;69146;52.266;7.000;2023-08-06T11:15:32;20.70;99.90
47616;DHT22;69146;52.266;7.000;2023-08-06T11:18:18;20.80;99.90
47616;DHT22;69146;52.266;7.000;2023-08-06T11:21:02;20.80;99.90
47616;DHT22;69146;52.266;7.000;2023-08-06T11:23:47;21.00;99.90
47616;DHT22;69146;52.266;7.000;2023-08-06T11:26:32;21.10;99.90
47616;DHT22;69146;52.266;7.000;2023-08-06T11:29:16;21.20;99.90
47616;DHT22;69146;52.266;7.000;2023-08-06T11:32:03;21.20;99.90
47616;DHT22;69146;52.266;7.000;2023-08-06T11:34:49;21.20;99.90
47616;DHT22;69146;52.266;7.000;2023-08-06T11:37:33;21.30;99.90
47616;DHT22;69146;52.266;7.000;2023-08-06T11:40:18;21.30;99.90
47616;DHT22;69146;52.266;7.000;2023-08-06T11:43:03;21.40;99.90
47616;DHT22;69146;52.266;7.000;2023-08-06T11:45:48;21.40;99.90
47616;DHT22;69146;52.266;7.000;2023-08-06T11:48:33;21.50;99.90
47616;DHT22;69146;52.266;7.000;2023-08-06T11:51:36;21.90;99.90
47616;DHT22;69146;52.266;7.000;2023-08-06T11:54:30;22.30;99.90
47616;DHT22;69146;52.266;7.000;2023-08-06T11:57:15;22.40;99.90
47616;DHT22;69146;52.266;7.000;2023-08-06T12:00:01;22.50;99.90
47616;DHT22;69146;52.266;7.000;2023-08-06T12:02:46;22.90;99.90
47616;DHT22;69146;52.266;7.000;2023-08-06T12:05:31;22.90;99.90
47616;DHT22;69146;52.266;7.000;2023-08-06T12:08:19;23.00;99.90
47616;DHT22;69146;52.266;7.000;2023-08-06T12:11:03;23.00;99.90
47616;DHT22;69146;52.266;7.000;2023-08-06T12:13:50;23.10;99.90
47616;DHT22;69146;52.266;7.000;2023-08-06T12:16:35;23.00;99.90
47616;DHT22;69146;52.266;7.000;2023-08-06T12:19:20;23.10;99.90
47616;DHT22;69146;52.266;7.000;2023-08-06T12:22:04;23.40;99.90
47616;DHT22;69146;52.266;7.000;2023-08-06T12:24:50;23.80;99.90
47616;DHT22;69146;52.266;7.000;2023-08-06T12:27:35;23.90;99.90
47616;DHT22;69146;52.266;7.000;2023-08-06T12:30:19;23.60;99.90
47616;DHT22;69146;52.266;7.000;2023-08-06T12:33:04;23.10;99.90
47616;DHT22;69146;52.266;7.000;2023-08-06T12:35:48;22.80;99.90
47616;DHT22;69146;52.266;7.000;2023-08-06T12:38:35;22.30;99.90
47616;DHT22;69146;52.266;7.000;2023-08-06T12:41:21;21.90;99.90
47616;DHT22;69146;52.266;7.000;2023-08-06T12:44:05;21.60;99.90
47616;DHT22;69146;52.266;7.000;2023-08-06T12:46:51;21.40;99.90
47616;DHT22;69146;52.266;7.000;2023-08-06T12:49:35;20.90;99.90
47616;DHT22;69146;52.266;7.000;2023-08-06T12:52:20;20.20;99.90
47616;DHT22;69146;52.266;7.000;2023-08-06T12:55:04;19.90;99.90
47616;DHT22;69146;52.266;7.000;2023-08-06T12:57:50;19.60;99.90
47616;DHT22;69146;52.266;7.000;2023-08-06T13:00:35;19.40;99.90
47616;DHT22;69146;52.266;7.000;2023-08-06T13:03:20;19.40;99.90
47616;DHT22;69146;52.266;7.000;2023-08-06T13:06:05;19.40;99.90
47616;DHT22;69146;52.266;7.000;2023-08-06T13:08:49;19.50;99.90
47616;DHT22;69146;52.266;7.000;2023-08-06T13:11:34;19.70;99.90
47616;DHT22;69146;52.266;7.000;2023-08-06T13:14:20;19.90;99.90
47616;DHT22;69146;52.266;7.000;2023-08-06T13:17:04;20.20;99.90
47616;DHT22;69146;52.266;7.000;2023-08-06T13:19:52;20.30;99.90
47616;DHT22;69146;52.266;7.000;2023-08-06T13:22:37;20.60;99.90
47616;DHT22;69146;52.266;7.000;2023-08-06T13:25:21;21.00;99.90
47616;DHT22;69146;52.266;7.000;2023-08-06T13:28:06;21.50;99.90
47616;DHT22;69146;52.266;7.000;2023-08-06T13:30:51;21.70;99.90
47616;DHT22;69146;52.266;7.000;2023-08-06T13:33:36;22.00;99.90
47616;DHT22;69146;52.266;7.000;2023-08-06T13:36:20;22.40;99.90
47616;DHT22;69146;52.266;7.000;2023-08-06T13:39:05;22.20;99.90
47616;DHT22;69146;52.266;7.000;2023-08-06T13:41:49;21.80;99.90
47616;DHT22;69146;52.266;7.000;2023-08-06T13:44:34;21.30;99.90
47616;DHT22;69146;52.266;7.000;2023-08-06T13:47:21;21.10;99.90
47616;DHT22;69146;52.266;7.000;2023-08-06T13:50:06;20.70;99.90
47616;DHT22;69146;52.266;7.000;2023-08-06T13:52:50;20.60;99.90
47616;DHT22;69146;52.266;7.000;2023-08-06T13:55:35;20.30;99.90
47616;DHT22;69146;52.266;7.000;2023-08-06T13:58:19;20.20;99.90
47616;DHT22;69146;52.266;7.000;2023-08-06T14:01:04;20.20;99.90
47616;DHT22;69146;52.266;7.000;2023-08-06T14:03:49;20.20;99.90
47616;DHT22;69146;52.266;7.000;2023-08-06T14:06:34;20.20;99.90
47616;DHT22;69146;52.266;7.000;2023-08-06T14:09:18;20.30;99.90
47616;DHT22;69146;52.266;7.000;2023-08-06T14:12:02;20.30;99.90
47616;DHT22;69146;52.266;7.000;2023-08-06T14:14:47;20.40;99.90
47616;DHT22;69146;52.266;7.000;2023-08-06T14:17:31;20.40;99.90
47616;DHT22;69146;52.266;7.000;2023-08-06T14:20:17;20.40;99.90
47616;DHT22;69146;52.266;7.000;2023-08-06T14:23:02;20.10;99.90
47616;DHT22;69146;52.266;7.000;2023-08-06T14:25:46;19.70;99.90
47616;DHT22;69146;52.266;7.000;2023-08-06T14:28:31;19.40;99.90
47616;DHT22;69146;52.266;7.000;2023-08-06T14:31:15;19.20;99.90
47616;DHT22;69146;52.266;7.000;2023-08-06T14:34:00;19.10;99.90
47616;DHT22;69146;52.266;7.000;2023-08-06T14:36:46;19.10;99.90
47616;DHT22;69146;52.266;7.000;2023-08-06T14:39:30;18.90;99.90
47616;DHT22;69146;52.266;7.000;2023-08-06T14:42:14;18.80;99.90
47616;DHT22;69146;52.266;7.000;2023-08-06T14:44:59;18.70;99.90
47616;DHT22;69146;52.266;7.000;2023-08-06T14:47:43;18.70;99.90
47616;DHT22;69146;52.266;7.000;2023-08-06T14:50:28;18.50;99.90
47616;DHT22;69146;52.266;7.000;2023-08-06T14:53:13;18.50;99.90
47616;DHT22;69146;52.266;7.000;2023-08-06T14:55:59;18.20;99.90
47616;DHT22;69146;52.266;7.000;2023-08-06T14:58:43;18.00;99.90
47616;DHT22;69146;52.266;7.000;2023-08-06T15:01:27;17.80;99.90
47616;DHT22;69146;52.266;7.000;2023-08-06T15:04:12;17.60;99.90
47616;DHT22;69146;52.266;7.000;2023-08-06T15:06:57;17.40;99.90
47616;DHT22;69146;52.266;7.000;2023-08-06T15:09:43;17.30;99.90
47616;DHT22;69146;52.266;7.000;2023-08-06T15:12:27;17.20;99.90
47616;DHT22;69146;52.266;7.000;2023-08-06T15:15:12;17.10;99.90
47616;DHT22;69146;52.266;7.000;2023-08-06T15:17:59;17.00;99.90
47616;DHT22;69146;52.266;7.000;2023-08-06T15:20:44;17.00;99.90
47616;DHT22;69146;52.266;7.000;2023-08-06T15:23:28;17.00;99.90
47616;DHT22;69146;52.266;7.000;2023-08-06T15:26:15;16.80;99.90
47616;DHT22;69146;52.266;7.000;2023-08-06T15:29:00;16.80;99.90
47616;DHT22;69146;52.266;7.000;2023-08-06T15:31:45;16.70;99.90
47616;DHT22;69146;52.266;7.000;2023-08-06T15:34:29;16.60;99.90
47616;DHT22;69146;52.266;7.000;2023-08-06T15:37:14;16.60;99.90
47616;DHT22;69146;52.266;7.000;2023-08-06T15:39:58;16.60;99.90
47616;DHT22;69146;52.266;7.000;2023-08-06T15:42:44;16.60;99.90
47616;DHT22;69146;52.266;7.000;2023-08-06T15:45:29;16.60;99.90
47616;DHT22;69146;52.266;7.000;2023-08-06T15:48:13;16.70;99.90
47616;DHT22;69146;52.266;7.000;2023-08-06T15:50:58;16.80;99.90
47616;DHT22;69146;52.266;7.000;2023-08-06T15:53:42;16.80;99.90
47616;DHT22;69146;52.266;7.000;2023-08-06T15:56:27;16.90;99.90
47616;DHT22;69146;52.266;7.000;2023-08-06T15:59:22;16.90;99.90
47616;DHT22;69146;52.266;7.000;2023-08-06T16:02:07;16.90;99.90
47616;DHT22;69146;52.266;7.000;2023-08-06T16:04:52;16.90;99.90
47616;DHT22;69146;52.266;7.000;2023-08-06T16:07:37;16.90;99.90
47616;DHT22;69146;52.266;7.000;2023-08-06T16:10:21;17.00;99.90
47616;DHT22;69146;52.266;7.000;2023-08-06T16:13:05;17.00;99.90
47616;DHT22;69146;52.266;7.000;2023-08-06T16:15:51;16.90;99.90
47616;DHT22;69146;52.266;7.000;2023-08-06T16:18:35;16.90;99.90
47616;DHT22;69146;52.266;7.000;2023-08-06T16:21:20;16.80;99.90
47616;DHT22;69146;52.266;7.000;2023-08-06T16:24:07;16.80;99.90
47616;DHT22;69146;52.266;7.000;2023-08-06T16:26:52;16.70;99.90
47616;DHT22;69146;52.266;7.000;2023-08-06T16:29:36;16.70;99.90
47616;DHT22;69146;52.266;7.000;2023-08-06T16:32:22;16.70;99.90
47616;DHT22;69146;52.266;7.000;2023-08-06T16:35:07;16.70;99.90
47616;DHT22;69146;52.266;7.000;2023-08-06T16:37:53;16.70;99.90
47616;DHT22;69146;52.266;7.000;2023-08-06T16:40:37;16.70;99.90
47616;DHT22;69146;52.266;7.000;2023-08-06T16:43:22;16.70;99.90
47616;DHT22;69146;52.266;7.000;2023-08-06T16:46:07;16.60;99.90
47616;DHT22;69146;52.266;7.000;2023-08-06T16:48:54;16.70;99.90
47616;DHT22;69146;52.266;7.000;2023-08-06T16:51:40;16.70;99.90
47616;DHT22;69146;52.266;7.000;2023-08-06T16:54:24;16.60;99.90
47616;DHT22;69146;52.266;7.000;2023-08-06T16:57:08;16.60;99.90
47616;DHT22;69146;52.266;7.000;2023-08-06T16:59:53;16.60;99.90
47616;DHT22;69146;52.266;7.000;2023-08-06T17:02:37;16.50;99.90
47616;DHT22;69146;52.266;7.000;2023-08-06T17:05:23;16.30;99.90
47616;DHT22;69146;52.266;7.000;2023-08-06T17:08:08;16.10;99.90
47616;DHT22;69146;52.266;7.000;2023-08-06T17:10:52;16.00;99.90
47616;DHT22;69146;52.266;7.000;2023-08-06T17:13:40;16.00;99.90
47616;DHT22;69146;52.266;7.000;2023-08-06T17:16:24;15.90;99.90
47616;DHT22;69146;52.266;7.000;2023-08-06T17:19:08;15.80;99.90
47616;DHT22;69146;52.266;7.000;2023-08-06T17:21:54;15.70;99.90